Reece City, Alabama
Current Conditions -  °F | °C
As of 6:35 PM on Sunday 21 Dec 2014 (Local Time) from KGAD Reporting Station
Overcast Overcast  
Wind Chill: 50°   Ceiling: 1700
Heat Index: 50°   Visibility: 10mi
Dew Point: 43°   Wind: 5mph
Humidity: 76%   Direction: 60°ENE
Pressure: 30.08"   Gusts: NA
Location:  34.0771°N, 86.0689°W
Report Text: KGAD 220035Z 06004KT 10SM OVC017 10/06 A3008 RMK AO1
Loading
Personal Weather Stations






























Interactive Weather Map New forecast layout! Learn more

10-Day Weather Forecast

Advertisements
Track Severe Weather on mobile